Latest Weather Observations for Kilmore Gap

IDV60801

Issued at 5:32 pm EDT Saturday 25 February 2017 (issued every 30 minutes, with the page automatically refreshed every 10 minutes)

About weather observations | Map of weather stations | Latest weather observations for VIC | Other Formats
Station Details ID: 088162 Name: KILMORE GAP Lat: -37.38 Lon: 144.97 Height: 527.8 m
Data from the previous 72 hours. | See also: Recent months at Kilmore Gap
Date/Time
EDT
Temp
°C
App
Temp
°C
Dew
Point
°C
Rel
Hum
%
Delta-T
°C
Wind Press
QNH
hPa
Press
MSL
hPa
Rain since
9am
mm
Dir  Spd
km/h
Gust
km/h
Spd
kts
Gust
kts
25/05:30pm 17.3 11.9 7.9 54 4.9 S 26 41 14 22 1021.3 1019.4 0.0
25/05:00pm 17.5 11.6 7.5 52 5.2 S 28 43 15 23 1021.3 1019.4 0.0
25/04:49pm 17.1 11.2 7.5 53 5.0 S 28 48 15 26 1021.2 1019.3 0.0
25/04:30pm 18.2 12.7 7.6 50 5.5 S 26 37 14 20 1021.3 1019.4 0.0
25/04:00pm 17.8 12.4 7.8 52 5.2 S 26 43 14 23 1021.3 1019.4 0.0
25/03:30pm 18.8 13.8 7.9 49 5.7 S 24 44 13 24 1021.4 1019.6 0.0
25/03:00pm 17.3 11.6 6.8 50 5.3 S 26 41 14 22 1021.6 1019.8 0.0
25/02:51pm 17.2 11.2 7.0 51 5.2 S 28 46 15 25 1021.7 1019.9 0.0
25/02:30pm 18.3 12.8 7.7 50 5.5 S 26 44 14 24 1022.1 1020.3 0.0
25/02:00pm 18.0 11.6 7.1 49 5.6 S 30 44 16 24 1022.5 1020.6 0.0
25/01:30pm 17.6 11.3 5.9 46 5.9 SSE 28 44 15 24 1022.5 1020.6 0.0
25/01:18pm 16.8 10.3 4.5 44 6.0 SSE 28 48 15 26 1022.3 1020.5 0.0
25/01:00pm 18.3 12.2 6.5 46 6.0 S 28 41 15 22 1022.7 1020.8 0.0
25/12:43pm 16.4 9.8 6.0 50 5.2 S 30 48 16 26 1022.8 1020.9 0.0
25/12:30pm 16.6 10.1 6.4 51 5.1 S 30 46 16 25 1023.0 1021.1 0.0
25/12:09pm 16.1 9.5 6.0 51 5.0 SSE 30 52 16 28 1023.2 1021.4 0.0
25/12:00pm 16.6 10.4 6.1 50 5.2 SSE 28 43 15 23 1023.4 1021.6 0.0
25/11:30am 15.9 9.7 6.1 52 4.9 S 28 43 15 23 1023.7 1021.9 0.0
25/11:00am 15.5 9.0 6.5 55 4.5 SSE 30 43 16 23 1023.7 1021.9 0.0
25/10:30am 14.5 7.4 6.3 58 4.1 SSE 33 57 18 31 1023.8 1022.0 0.0
25/10:01am 13.0 5.3 5.2 59 3.7 SSE 35 54 19 29 1023.7 1021.9 0.0
25/10:00am 13.2 5.6 5.6 60 3.7 SSE 35 50 19 27 1023.7 1021.9 0.0
25/09:39am 13.1 5.6 6.2 63 3.4 S 35 54 19 29 1023.9 1022.1 0.0
25/09:30am 12.4 4.8 6.0 65 3.1 SSE 35 50 19 27 1023.6 1021.8 0.0
25/09:19am 12.4 5.4 6.0 65 3.1 S 32 50 17 27 1023.7 1021.9 0.0
25/09:00am 11.6 4.7 6.3 70 2.6 SSE 32 48 17 26 1023.6 1021.8 0.2
25/08:57am 11.4 4.8 6.1 70 2.6 SSE 30 48 16 26 1023.6 1021.8 0.2
25/08:30am 10.7 3.7 6.8 77 1.9 SSE 33 44 18 24 1023.5 1021.7 0.2
25/08:00am 9.7 2.6 6.6 81 1.5 S 33 50 18 27 1023.4 1021.6 0.2
25/07:30am 8.9 2.1 6.7 86 1.1 SSE 32 41 17 22 1023.0 1021.1 0.2
25/07:00am 8.6 2.1 6.7 88 0.9 SSE 30 39 16 21 1022.7 1020.8 0.2
25/06:30am 8.8 2.4 7.1 89 0.8 SSE 30 41 16 22 1022.6 1020.7 0.2
25/06:00am 9.1 2.4 7.2 88 0.9 SSE 32 46 17 25 1022.5 1020.6 0.2
25/05:30am 9.3 2.6 7.3 87 1.0 S 32 48 17 26 1022.3 1020.5 0.2
25/05:00am 9.6 2.7 7.2 85 1.2 S 33 48 18 26 1022.5 1020.6 0.2
25/04:56am 9.7 2.8 7.3 85 1.2 S 33 48 18 26 1022.5 1020.6 0.2
25/04:30am 10.3 3.1 7.5 83 1.4 S 35 50 19 27 1022.6 1020.7 0.2
25/04:00am 10.7 4.3 9.3 91 0.7 S 33 46 18 25 1022.7 1020.8 0.2
25/03:30am 10.7 4.8 9.1 90 0.8 S 30 46 16 25 1022.8 1020.9 0.2
25/03:16am 10.5 5.0 9.1 91 0.7 S 28 39 15 21 1023.0 1021.1 0.2
25/03:00am 10.4 4.8 8.8 90 0.8 SSE 28 37 15 20 1023.0 1021.1 0.2
25/02:30am 10.4 4.8 8.8 90 0.8 S 28 41 15 22 1023.4 1021.6 0.2
25/02:00am 10.2 5.4 9.0 92 0.6 SSE 24 37 13 20 1023.5 1021.7 0.2
25/01:30am 10.5 4.6 8.9 90 0.8 S 30 39 16 21 1023.6 1021.8 0.2
25/01:00am 11.2 6.3 8.6 84 1.3 SSE 24 33 13 18 1024.0 1022.2 0.2
25/12:30am 11.8 7.2 8.3 79 1.8 SSE 22 33 12 18 1024.2 1022.4 0.2
25/12:00am 12.1 7.5 8.2 77 2.0 SSE 22 32 12 17 1024.5 1022.6 0.2
 
Date/Time
EDT
Temp
°C
App
Temp
°C
Dew
Point
°C
Rel
Hum
%
Delta-T
°C
Wind Press
QNH
hPa
Press
MSL
hPa
Rain since
9am
mm
Dir  Spd
km/h
Gust
km/h
Spd
kts
Gust
kts
24/11:30pm 12.3 6.4 7.6 73 2.4 S 28 39 15 21 1024.5 1022.6 0.2
24/11:00pm 12.5 7.1 7.8 73 2.4 SSE 26 41 14 22 1024.6 1022.7 0.2
24/10:30pm 12.5 6.9 8.6 77 2.0 SSE 28 39 15 21 1024.7 1022.9 0.2
24/10:00pm 12.6 6.6 8.7 77 2.0 S 30 44 16 24 1024.9 1023.1 0.2
24/09:40pm 12.7 7.0 8.2 74 2.3 S 28 48 15 26 1024.9 1023.1 0.2
24/09:30pm 12.7 6.5 8.0 73 2.4 S 30 37 16 20 1024.9 1023.1 0.2
24/09:00pm 12.7 6.0 8.0 73 2.4 S 33 48 18 26 1024.6 1022.7 0.2
24/08:56pm 12.7 7.0 8.2 74 2.3 S 28 48 15 26 1024.6 1022.7 0.2
24/08:30pm 12.7 6.4 7.6 71 2.6 S 30 41 16 22 1024.6 1022.7 0.2
24/08:00pm 12.8 7.0 7.9 72 2.5 S 28 44 15 24 1024.3 1022.5 0.2
24/07:30pm 13.1 7.3 7.8 70 2.7 S 28 44 15 24 1024.3 1022.5 0.2
24/07:00pm 13.4 6.7 7.4 67 3.0 S 32 44 17 24 1024.0 1022.2 0.2
24/06:30pm 14.7 7.5 7.7 63 3.6 S 35 52 19 28 1023.8 1022.0 0.2
24/06:00pm 14.7 8.1 8.6 67 3.2 S 33 52 18 28 1023.8 1022.0 0.2
24/05:36pm 14.5 7.8 7.5 63 3.6 S 32 50 17 27 1023.8 1022.0 0.2
24/05:30pm 14.5 7.4 8.0 65 3.3 S 35 46 19 25 1023.8 1022.0 0.2
24/05:00pm 14.8 7.7 8.1 64 3.4 S 35 54 19 29 1023.7 1021.9 0.2
24/04:30pm 15.8 8.2 7.6 58 4.2 S 37 56 20 30 1023.6 1021.8 0.2
24/04:00pm 16.5 9.4 8.0 57 4.4 S 35 56 19 30 1023.7 1021.9 0.2
24/03:33pm 17.6 10.8 7.6 52 5.2 S 33 52 18 28 1023.8 1022.0 0.2
24/03:30pm 17.4 10.7 7.5 52 5.1 S 32 46 17 25 1023.8 1022.0 0.2
24/03:13pm 17.2 9.9 7.3 52 5.1 S 35 54 19 29 1023.9 1022.1 0.2
24/03:00pm 16.4 9.6 7.6 56 4.5 S 33 48 18 26 1024.0 1022.2 0.2
24/02:30pm 16.4 9.8 7.9 57 4.4 S 32 50 17 27 1024.2 1022.4 0.2
24/02:00pm 17.3 11.1 7.9 54 4.9 S 30 48 16 26 1024.2 1022.4 0.0
24/01:37pm 16.9 10.2 8.1 56 4.6 S 33 54 18 29 1024.1 1022.3 0.0
24/01:30pm 16.6 10.0 7.8 56 4.6 S 32 44 17 24 1024.1 1022.3 0.0
24/01:13pm 16.2 9.6 7.9 58 4.3 S 32 50 17 27 1024.1 1022.3 0.0
24/01:00pm 16.2 9.9 8.9 62 3.8 S 32 46 17 25 1024.3 1022.5 0.0
24/12:44pm 16.7 11.3 9.4 62 3.9 S 28 46 15 25 1024.3 1022.5 0.0
24/12:30pm 16.4 11.3 9.3 63 3.8 S 26 41 14 22 1024.3 1022.5 0.0
24/12:02pm 15.3 9.8 9.2 67 3.2 S 28 46 15 25 1024.6 1022.7 0.0
24/12:00pm 15.9 10.6 10.0 68 3.2 S 28 43 15 23 1024.7 1022.9 0.0
24/11:42am 15.2 9.9 9.8 70 2.9 S 28 48 15 26 1024.6 1022.7 0.0
24/11:30am 14.5 8.9 10.3 76 2.3 S 30 44 16 24 1024.6 1022.7 0.0
24/11:00am 14.2 9.3 11.2 82 1.6 S 28 43 15 23 1024.6 1022.7 0.0
24/10:48am 13.4 7.7 11.3 87 1.1 S 32 41 17 22 1024.5 1022.6 0.0
24/10:30am 13.0 8.5 11.4 90 0.9 S 26 43 14 23 1024.3 1022.5 0.0
24/10:14am 11.8 7.9 10.7 93 0.6 S 22 35 12 19 1024.5 1022.6 0.0
24/10:02am 11.8 6.9 11.3 97 0.3 S 28 39 15 21 1024.2 1022.4 0.0
24/10:00am 11.8 7.0 11.5 98 0.2 S 28 35 15 19 1024.2 1022.4 0.0
24/09:56am 11.7 6.5 11.5 99 0.1 S 30 39 16 21 1024.2 1022.4 0.0
24/09:30am 12.4 8.1 12.2 99 0.1 S 26 39 14 21 1023.9 1022.1 0.0
24/09:00am 12.0 8.0 11.8 99 0.1 S 24 37 13 20 1023.9 1022.1 1.4
24/08:30am 12.0 7.6 11.8 99 0.1 SSE 26 37 14 20 1023.5 1021.7 1.4
24/08:00am 12.0 8.4 11.8 99 0.1 S 22 32 12 17 1023.3 1021.5 1.2
24/07:30am 11.9 8.3 11.7 99 0.1 S 22 33 12 18 1023.0 1021.1 1.0
24/07:00am 11.9 7.9 11.7 99 0.1 S 24 39 13 21 1022.8 1020.9 0.8
24/06:30am 12.4 8.9 12.2 99 0.1 S 22 35 12 19 1022.6 1020.7 0.8
24/06:00am 12.3 9.2 12.1 99 0.1 S 20 32 11 17 1022.3 1020.5 0.2
24/05:30am 12.5 9.4 12.3 99 0.1 S 20 32 11 17 1022.1 1020.3 0.0
24/05:00am 12.6 9.2 12.4 99 0.1 S 22 33 12 18 1021.8 1020.0 0.0
24/04:30am 12.8 9.8 12.6 99 0.1 S 20 28 11 15 1022.0 1020.2 0.0
24/04:00am 13.1 10.2 12.9 99 0.1 S 20 33 11 18 1022.1 1020.3 0.0
24/03:30am 13.2 10.0 13.0 99 0.1 S 22 32 12 17 1022.2 1020.4 0.0
24/03:00am 13.4 9.8 13.2 99 0.1 S 24 33 13 18 1022.1 1020.3 0.0
24/02:30am 13.4 10.2 13.2 99 0.1 S 22 39 12 21 1022.2 1020.4 0.0
24/02:00am 13.5 10.9 13.3 99 0.1 SSE 19 30 10 16 1022.5 1020.6 0.0
24/01:30am 13.5 10.4 13.3 99 0.1 SSE 22 28 12 15 1022.7 1020.8 0.0
24/01:00am 13.6 10.5 13.3 98 0.2 SSE 22 30 12 16 1022.8 1020.9 0.0
24/12:30am 13.9 10.8 13.4 97 0.3 S 22 32 12 17 1022.8 1020.9 0.0
24/12:18am 14.0 10.5 13.4 96 0.3 S 24 35 13 19 1022.7 1020.8 0.0
24/12:00am 14.1 10.6 13.3 95 0.5 S 24 35 13 19 1022.6 1020.7 0.0
 
Date/Time
EDT
Temp
°C
App
Temp
°C
Dew
Point
°C
Rel
Hum
%
Delta-T
°C
Wind Press
QNH
hPa
Press
MSL
hPa
Rain since
9am
mm
Dir  Spd
km/h
Gust
km/h
Spd
kts
Gust
kts
23/11:30pm 14.2 10.6 13.2 94 0.6 S 24 33 13 18 1022.6 1020.7 0.0
23/11:00pm 14.2 10.0 13.4 95 0.5 S 28 37 15 20 1022.6 1020.7 0.0
23/10:30pm 14.1 10.6 13.5 96 0.3 S 24 35 13 19 1022.6 1020.7 0.0
23/10:00pm 13.9 10.8 13.3 96 0.3 S 22 32 12 17 1022.5 1020.6 0.0
23/09:44pm 14.0 10.8 13.1 94 0.5 S 22 32 12 17 1022.5 1020.6 0.0
23/09:30pm 14.2 10.6 12.9 92 0.7 S 24 33 13 18 1022.3 1020.5 0.0
23/09:00pm 14.9 10.8 12.8 87 1.2 S 26 39 14 21 1021.8 1020.0 0.0
23/08:30pm 16.3 12.5 12.5 78 2.1 S 24 33 13 18 1021.3 1019.4 0.0
23/08:00pm 18.0 14.2 11.1 64 3.8 S 22 32 12 17 1020.8 1018.9 0.0
23/07:30pm 19.6 15.3 10.9 57 4.9 S 24 32 13 17 1020.3 1018.5 0.0
23/07:00pm 21.4 17.6 11.1 52 5.8 S 22 32 12 17 1020.0 1018.2 0.0
23/06:30pm 22.8 20.0 11.5 49 6.5 SSE 17 26 9 14 1019.7 1017.9 0.0
23/06:00pm 23.4 20.2 11.8 48 6.7 SSE 20 33 11 18 1019.4 1017.5 0.0
23/05:30pm 24.3 21.2 11.6 45 7.3 SSE 19 30 10 16 1019.2 1017.3 0.0
23/05:00pm 24.8 22.8 11.4 43 7.7 S 13 22 7 12 1018.9 1017.0 0.0
23/04:30pm 24.3 22.1 10.9 43 7.7 SSW 13 20 7 11 1018.9 1017.0 0.0
23/04:00pm 25.8 23.5 11.6 41 8.3 SSE 15 24 8 13 1018.9 1017.0 0.0
23/03:30pm 25.7 24.6 11.8 42 8.1 S 9 20 5 11 1019.1 1017.2 0.0
23/03:00pm 23.9 21.7 10.9 44 7.4 SSW 13 22 7 12 1019.3 1017.4 0.0
23/02:30pm 24.1 22.0 11.1 44 7.5 S 13 22 7 12 1019.2 1017.3 0.0
23/02:00pm 24.0 21.4 10.7 43 7.6 S 15 24 8 13 1019.3 1017.4 0.0
23/01:30pm 23.0 20.8 10.8 46 6.9 S 13 20 7 11 1019.3 1017.4 0.0
23/01:00pm 22.8 20.8 11.5 49 6.5 SSE 13 24 7 13 1019.5 1017.6 0.0
23/12:30pm 22.3 19.5 11.4 50 6.2 SSE 17 24 9 13 1019.6 1017.7 0.0
23/12:00pm 20.7 17.7 10.8 53 5.5 S 17 26 9 14 1019.5 1017.6 0.0
23/11:30am 20.7 18.2 11.1 54 5.4 S 15 24 8 13 1019.4 1017.5 0.0
23/11:00am 20.2 17.3 11.1 56 5.1 S 17 26 9 14 1019.2 1017.3 0.0
23/10:30am 18.4 15.3 10.3 59 4.4 S 17 26 9 14 1019.0 1017.1 0.0
23/10:00am 18.1 14.6 10.2 60 4.3 S 19 32 10 17 1018.6 1016.7 0.0
23/09:30am 17.9 14.7 9.8 59 4.4 S 17 28 9 15 1018.2 1016.4 0.0
23/09:00am 16.9 13.2 9.6 62 3.9 SSW 19 24 10 13 1017.9 1016.0 0.0
23/08:30am 16.2 13.5 10.3 68 3.2 SSW 15 22 8 12 1017.6 1015.7 0.0
23/08:00am 14.8 12.0 11.4 80 1.9 SSW 17 20 9 11 1017.1 1015.2 0.0
23/07:30am 15.1 12.8 10.3 73 2.6 S 13 17 7 9 1016.5 1014.6 0.0
23/07:00am 14.6 12.5 9.8 73 2.6 SSE 11 15 6 8 1015.9 1014.0 0.0
23/06:30am 15.1 13.1 10.1 72 2.7 SSE 11 15 6 8 1015.4 1013.5 0.0
23/06:00am 15.3 12.8 9.7 69 3.0 S 13 19 7 10 1015.1 1013.2 0.0
23/05:30am 15.1 12.5 9.5 69 3.0 S 13 15 7 8 1014.9 1013.0 0.0
23/05:00am 15.8 13.0 10.1 69 3.1 SE 15 19 8 10 1014.6 1012.6 0.0
23/04:30am 15.8 13.1 10.3 70 3.0 SSE 15 19 8 10 1014.3 1012.4 0.0
23/04:00am 15.7 13.2 10.9 73 2.6 SSE 15 20 8 11 1014.3 1012.4 0.0
23/03:30am 15.1 13.1 11.5 79 2.0 SSE 13 19 7 10 1014.1 1012.2 0.0
23/03:00am 15.3 12.9 11.5 78 2.1 SSE 15 20 8 11 1014.1 1012.2 0.0
23/02:30am 15.4 12.7 11.8 79 2.0 SSE 17 22 9 12 1013.9 1012.0 0.0
23/02:00am 15.2 11.6 11.8 80 1.9 SE 22 24 12 13 1013.9 1012.0 0.0
23/01:30am 15.9 12.1 11.3 74 2.5 SSE 22 24 12 13 1014.0 1012.1 0.0
23/01:00am 16.5 13.5 10.6 68 3.2 SSE 17 22 9 12 1013.9 1012.0 0.0
23/12:30am 16.8 13.9 9.7 63 3.8 SSE 15 24 8 13 1013.7 1011.8 0.0
23/12:11am 19.4 15.2 8.1 48 6.0 SW 20 32 11 17 1013.5 1011.6 0.0
23/12:00am 24.4 18.4 1.3 22 11.1 NNW 22 32 12 17 1013.1 1011.2 0.0
 
Date/Time
EDT
Temp
°C
App
Temp
°C
Dew
Point
°C
Rel
Hum
%
Delta-T
°C
Wind Press
QNH
hPa
Press
MSL
hPa
Rain since
9am
mm
Dir  Spd
km/h
Gust
km/h
Spd
kts
Gust
kts
22/11:30pm 24.3 16.8 1.2 22 11.1 N 30 37 16 20 1012.2 1010.3 0.0
22/11:00pm 25.0 17.1 1.2 21 11.5 N 32 41 17 22 1012.1 1010.2 0.0
22/10:30pm 25.8 17.8 0.5 19 12.1 N 32 39 17 21 1012.0 1010.1 0.0
22/10:00pm 26.3 18.1 0.1 18 12.5 N 33 41 18 22 1011.9 1010.0 0.0
22/09:30pm 26.3 18.3 0.1 18 12.5 N 32 39 17 21 1011.8 1009.9 0.0
22/09:00pm 26.7 18.4 -0.3 17 12.9 N 33 41 18 22 1011.6 1009.7 0.0
22/08:30pm 27.2 19.2 0.1 17 13.0 NNW 32 39 17 21 1011.6 1009.7 0.0
22/08:00pm 27.9 19.8 -0.2 16 13.5 NNW 32 41 17 22 1011.4 1009.5 0.0
22/07:30pm 28.5 20.5 0.3 16 13.7 N 32 43 17 23 1011.3 1009.3 0.0
22/07:00pm 29.2 21.1 -0.1 15 14.3 N 32 44 17 24 1011.4 1009.5 0.0
22/06:33pm 29.0 21.0 0.7 16 13.9 N 32 50 17 27 1011.5 1009.6 0.0
22/06:30pm 29.1 21.1 0.7 16 14.0 N 32 48 17 26 1011.5 1009.6 0.0
22/06:07pm 29.6 21.0 0.2 15 14.4 N 35 54 19 29 1011.6 1009.7 0.0
22/06:00pm 29.4 20.9 1.0 16 14.1 N 35 50 19 27 1011.6 1009.7 0.0
22/05:38pm 29.7 20.6 2.1 17 14.0 N 39 57 21 31 1011.6 1009.7 0.0

Other Formats:

Comma delimited format used in spreadsheet applications
http://www.bom.gov.au/fwo/IDV60801/IDV60801.94860.axf

JavaScript Object Notation format (JSON) in row-major order
http://www.bom.gov.au/fwo/IDV60801/IDV60801.94860.json